Time;durP1;ratioP1;P1;durP2;ratioP2;P2;SDS_P1;SDS_P2;PMS_P1;PMS_P2;Temp;Humidity;BMP_temperature;BMP_pressure;BME280_temperature;BME280_humidity;BME280_pressure;Samples;Min_cycle;Max_cycle;Signal;HPM_P1;HPM_P2
2023/01/17 00:00:18;;;;;;;15.77;12.15;;;;;;;4.95;86.30;93814.63;5031815;28;20204;-70
2023/01/17 00:02:45;;;;;;;17.17;12.40;;;;;;;5.03;85.79;93797.56;5031989;28;20751;-70
2023/01/17 00:10:41;;;;;;;14.27;10.23;;;;;;;4.65;86.58;93799.59;5031320;28;20695;-71
2023/01/17 00:13:08;;;;;;;12.77;10.05;;;;;;;4.52;87.64;93775.69;5032003;28;20665;-69
2023/01/17 00:15:36;;;;;;;18.75;11.82;;;;;;;4.52;88.02;93793.28;5032064;28;20207;-67
2023/01/17 00:18:02;;;;;;;16.85;12.10;;;;;;;4.60;87.80;93811.50;5031831;28;20191;-69
2023/01/17 00:26:03;;;;;;;17.77;12.73;;;;;;;4.89;86.61;93792.97;5031740;28;20202;-68
2023/01/17 01:35:23;;;;;;;15.77;11.15;;;;;;;4.37;90.25;93776.16;5029894;28;20218;-71
2023/01/17 01:37:50;;;;;;;17.92;11.38;;;;;;;4.32;90.31;93742.78;5045411;28;20657;-69
2023/01/17 01:40:18;;;;;;;15.57;10.75;;;;;;;4.28;90.68;93752.09;5049747;28;20223;-70
2023/01/17 01:42:53;;;;;;;20.75;11.48;;;;;;;4.35;90.62;93763.63;5050369;28;20614;-70
2023/01/17 01:45:23;;;;;;;13.98;10.88;;;;;;;4.39;90.30;93764.38;5050608;28;20248;-68
2023/01/17 01:47:51;;;;;;;17.60;12.65;;;;;;;4.43;90.43;93745.81;5050198;28;20256;-69
2023/01/17 01:50:21;;;;;;;14.45;10.85;;;;;;;4.49;90.23;93750.63;5049454;28;20203;-71
2023/01/17 01:52:51;;;;;;;17.05;11.90;;;;;;;4.40;90.00;93708.16;5048457;28;20203;-70
2023/01/17 01:55:22;;;;;;;22.88;12.70;;;;;;;4.60;89.82;93723.44;5048586;28;20557;-69
2023/01/17 01:57:54;;;;;;;17.20;10.98;;;;;;;4.65;89.04;93741.75;5049021;28;20198;-70
2023/01/17 02:00:24;;;;;;;16.25;12.15;;;;;;;4.75;88.79;93758.16;5048986;28;20272;-69
2023/01/17 02:02:53;;;;;;;14.17;10.63;;;;;;;4.93;88.02;93755.94;5048795;28;20636;-69
2023/01/17 02:05:23;;;;;;;14.50;10.13;;;;;;;4.79;88.31;93762.25;5049579;28;20203;-68
2023/01/17 02:07:53;;;;;;;17.08;11.65;;;;;;;4.72;88.83;93727.25;5050408;28;20207;-69
2023/01/17 02:10:20;;;;;;;16.48;11.40;;;;;;;4.92;88.32;93734.16;5050535;28;20199;-67
2023/01/17 02:12:47;;;;;;;15.20;11.02;;;;;;;4.66;89.12;93728.28;5050287;28;20211;-68
2023/01/17 02:15:15;;;;;;;15.25;11.52;;;;;;;4.56;89.83;93737.00;5050183;28;20294;-69
2023/01/17 02:17:52;;;;;;;15.40;11.10;;;;;;;4.59;90.13;93734.38;5050339;28;20228;-69
2023/01/17 02:21:05;;;;;;;18.00;12.20;;;;;;;4.60;89.88;93743.56;5050053;28;20578;-68
2023/01/17 02:24:08;;;;;;;14.77;11.20;;;;;;;4.66;89.63;93732.50;5049834;28;20203;-69
2023/01/17 02:26:50;;;;;;;16.08;11.02;;;;;;;4.65;89.48;93748.47;5050250;28;20210;-69
2023/01/17 02:30:03;;;;;;;15.60;11.53;;;;;;;4.57;90.69;93743.66;5050337;28;20256;-69
2023/01/17 02:32:45;;;;;;;15.50;11.00;;;;;;;4.65;89.90;93740.91;5049647;28;20235;-68
2023/01/17 02:35:22;;;;;;;15.77;12.17;;;;;;;4.59;89.95;93731.03;5049788;28;20195;-70
2023/01/17 02:37:58;;;;;;;18.35;11.50;;;;;;;4.70;90.44;93719.75;5053264;28;20268;-69
2023/01/17 02:40:29;;;;;;;14.77;11.27;;;;;;;4.91;89.55;93732.53;5047207;28;20231;-69
2023/01/17 02:43:01;;;;;;;17.52;11.27;;;;;;;4.97;89.26;93737.31;5033421;28;20688;-69
2023/01/17 02:45:29;;;;;;;15.55;11.45;;;;;;;4.99;88.17;93733.88;5033691;28;20647;-70
2023/01/17 02:47:57;;;;;;;13.80;11.43;;;;;;;5.02;88.83;93725.41;5033217;28;20214;-69
2023/01/17 02:50:31;;;;;;;19.00;11.80;;;;;;;5.16;88.88;93708.16;5033165;28;20200;-69
2023/01/17 02:53:12;;;;;;;16.38;11.35;;;;;;;5.13;88.54;93728.41;5033378;28;20258;-69
2023/01/17 02:55:54;;;;;;;16.80;11.70;;;;;;;4.91;89.63;93710.69;5033601;28;20210;-70
2023/01/17 02:58:36;;;;;;;12.82;10.60;;;;;;;4.87;90.54;93704.09;5033260;28;20742;-68
2023/01/17 03:01:14;;;;;;;14.82;10.85;;;;;;;4.91;90.15;93694.75;5033604;28;20203;-69
2023/01/17 03:03:49;;;;;;;16.55;11.15;;;;;;;4.82;90.88;93707.66;5032807;28;20692;-70
2023/01/17 03:06:20;;;;;;;15.23;10.88;;;;;;;4.76;91.30;93703.63;5051139;28;20202;-69
2023/01/17 03:08:50;;;;;;;16.70;11.57;;;;;;;4.69;92.00;93705.53;5033179;28;20285;-69
2023/01/17 03:11:17;;;;;;;16.42;11.82;;;;;;;4.81;91.32;93700.97;5049342;28;20203;-70
2023/01/17 03:13:44;;;;;;;13.73;10.30;;;;;;;4.68;92.17;93695.53;5072459;28;20253;-68
2023/01/17 03:16:14;;;;;;;16.58;11.23;;;;;;;4.71;92.28;93691.19;5071479;28;20227;-69
2023/01/17 03:18:42;;;;;;;17.40;11.77;;;;;;;4.81;92.19;93706.81;5071237;28;20244;-69
2023/01/17 03:21:09;;;;;;;15.15;10.63;;;;;;;4.64;92.19;93704.88;5071693;28;20198;-69
2023/01/17 03:23:36;;;;;;;17.55;11.05;;;;;;;4.84;92.17;93680.72;5070637;28;20195;-69
2023/01/17 03:26:03;;;;;;;18.55;11.38;;;;;;;4.98;91.38;93689.44;5071099;28;20203;-69
2023/01/17 03:28:29;;;;;;;11.93;9.80;;;;;;;5.00;91.00;93692.75;5070707;28;20233;-69
2023/01/17 03:30:56;;;;;;;18.10;11.52;;;;;;;4.91;91.48;93712.38;5072049;28;20241;-69
2023/01/17 03:33:24;;;;;;;15.23;11.45;;;;;;;4.91;91.52;93707.34;5058385;28;20280;-70
2023/01/17 03:35:53;;;;;;;16.25;11.25;;;;;;;4.96;90.98;93696.22;5052638;28;20206;-69
2023/01/17 03:38:20;;;;;;;15.55;10.77;;;;;;;4.79;91.43;93694.28;5050841;28;20683;-68
2023/01/17 03:40:46;;;;;;;14.05;10.70;;;;;;;4.99;90.96;93701.16;5052713;28;20194;-69
2023/01/17 03:43:13;;;;;;;12.85;10.70;;;;;;;5.12;90.76;93702.41;5052038;28;20252;-70
2023/01/17 03:45:40;;;;;;;14.37;11.27;;;;;;;5.17;90.27;93711.50;5052169;28;20199;-69
2023/01/17 03:48:06;;;;;;;15.60;10.95;;;;;;;5.27;90.22;93711.13;5051605;28;20671;-69
2023/01/17 03:50:33;;;;;;;17.77;11.05;;;;;;;5.32;90.14;93728.59;5051983;28;20227;-69
2023/01/17 03:53:01;;;;;;;14.52;11.55;;;;;;;5.48;89.10;93702.78;5052028;28;20195;-69
2023/01/17 03:55:28;;;;;;;12.07;9.55;;;;;;;5.44;88.40;93708.03;5052261;28;20284;-70
2023/01/17 03:57:55;;;;;;;14.63;10.27;;;;;;;5.20;89.67;93698.81;5052225;28;20198;-71
2023/01/17 04:00:22;;;;;;;16.65;11.18;;;;;;;5.28;89.72;93667.44;5050170;28;20260;-68
2023/01/17 04:02:48;;;;;;;18.75;10.73;;;;;;;5.30;89.59;93711.00;5031680;28;20211;-69
2023/01/17 04:05:15;;;;;;;12.15;10.75;;;;;;;5.35;89.64;93699.09;5031701;28;20242;-69
2023/01/17 04:07:42;;;;;;;15.18;11.63;;;;;;;5.55;88.96;93720.22;5032547;28;20188;-69
2023/01/17 04:10:11;;;;;;;14.52;10.65;;;;;;;5.47;88.22;93728.03;5032287;28;20270;-69
2023/01/17 04:12:38;;;;;;;15.40;11.68;;;;;;;5.37;88.49;93712.44;5031823;28;20180;-68
2023/01/17 04:15:05;;;;;;;18.70;11.48;;;;;;;5.59;88.42;93716.72;5031352;28;20192;-69
2023/01/17 04:17:32;;;;;;;14.30;11.02;;;;;;;5.65;88.05;93736.66;5030932;28;20250;-69
2023/01/17 04:19:59;;;;;;;15.93;11.68;;;;;;;5.75;87.60;93722.84;5030872;28;20192;-70
2023/01/17 04:22:26;;;;;;;14.18;10.52;;;;;;;5.70;87.63;93747.38;5030481;28;20203;-68
2023/01/17 04:24:52;;;;;;;13.85;10.02;;;;;;;5.76;87.82;93749.69;5030558;28;20204;-70
2023/01/17 04:27:20;;;;;;;15.40;11.60;;;;;;;5.77;87.26;93736.22;5030795;28;20184;-70
2023/01/17 04:29:47;;;;;;;15.85;10.43;;;;;;;5.70;87.26;93754.94;5031141;28;20219;-68
2023/01/17 04:32:14;;;;;;;12.30;9.35;;;;;;;5.58;87.58;93736.06;5031504;28;20231;-70
2023/01/17 04:34:41;;;;;;;19.20;11.35;;;;;;;5.61;87.89;93730.09;5031762;28;20283;-70
2023/01/17 04:37:08;;;;;;;15.65;10.65;;;;;;;5.68;87.48;93727.31;5031802;28;20203;-70
2023/01/17 04:39:34;;;;;;;17.27;11.63;;;;;;;5.61;88.46;93730.09;5031391;28;20712;-66
2023/01/17 04:42:01;;;;;;;13.52;10.95;;;;;;;5.58;87.37;93732.72;5031884;28;20200;-69
2023/01/17 04:44:29;;;;;;;11.95;10.38;;;;;;;5.74;88.10;93726.25;5031339;28;20310;-69
2023/01/17 04:46:56;;;;;;;15.07;11.55;;;;;;;5.64;87.60;93724.94;5031295;28;20230;-68
2023/01/17 04:49:23;;;;;;;13.55;10.88;;;;;;;5.62;88.44;93751.91;5030830;28;20708;-69
2023/01/17 04:51:49;;;;;;;16.63;11.45;;;;;;;5.59;87.54;93746.97;5031275;28;20196;-68
2023/01/17 04:54:16;;;;;;;16.17;10.57;;;;;;;5.57;88.31;93758.78;5031402;28;20209;-71
2023/01/17 04:56:43;;;;;;;12.85;9.68;;;;;;;5.69;87.38;93754.13;5031258;28;20199;-68
2023/01/17 04:59:10;;;;;;;15.48;10.30;;;;;;;5.73;88.11;93749.78;5030631;28;20200;-69
2023/01/17 05:01:38;;;;;;;14.93;11.40;;;;;;;5.75;88.04;93758.94;5031199;28;20200;-69
2023/01/17 05:04:05;;;;;;;15.23;10.40;;;;;;;5.95;87.35;93760.78;5031036;28;20261;-68
2023/01/17 05:06:32;;;;;;;12.27;9.65;;;;;;;5.72;87.81;93754.00;5030954;28;20199;-67
2023/01/17 05:08:59;;;;;;;13.35;10.32;;;;;;;5.59;88.11;93752.00;5030878;28;20231;-69
2023/01/17 05:11:25;;;;;;;14.48;10.82;;;;;;;5.60;88.30;93758.69;5031274;28;20287;-68
2023/01/17 05:13:52;;;;;;;14.18;10.63;;;;;;;5.56;88.61;93767.22;5030534;28;20612;-70
2023/01/17 05:16:19;;;;;;;16.73;10.75;;;;;;;5.55;88.15;93788.25;5030818;28;20257;-69
2023/01/17 05:18:51;;;;;;;15.93;10.82;;;;;;;5.65;88.45;93787.91;5030609;28;20200;-68
2023/01/17 05:21:19;;;;;;;15.48;10.77;;;;;;;5.87;87.65;93792.16;5030813;28;20200;-69
2023/01/17 05:23:45;;;;;;;14.73;10.05;;;;;;;5.97;86.84;93778.38;5030488;28;20203;-69
2023/01/17 05:26:12;;;;;;;13.88;10.10;;;;;;;5.99;86.56;93754.75;5030656;28;20195;-70
2023/01/17 05:28:39;;;;;;;14.60;10.55;;;;;;;5.93;86.30;93752.47;5030894;28;20706;-69
2023/01/17 05:31:06;;;;;;;13.70;10.18;;;;;;;5.91;87.73;93749.19;5030509;28;20258;-69
2023/01/17 05:33:33;;;;;;;15.13;11.43;;;;;;;6.16;86.87;93759.19;5030778;28;20203;-68
2023/01/17 05:36:02;;;;;;;14.35;9.55;;;;;;;6.02;85.66;93762.19;5030573;28;20207;-68
2023/01/17 05:38:29;;;;;;;15.30;9.77;;;;;;;5.80;86.44;93733.59;5029801;28;20289;-70
2023/01/17 05:40:58;;;;;;;15.77;10.80;;;;;;;5.84;87.01;93762.84;5030762;28;20253;-70
2023/01/17 05:43:25;;;;;;;12.88;10.77;;;;;;;5.86;87.47;93730.03;5030395;28;20587;-70
2023/01/17 05:45:52;;;;;;;12.10;8.85;;;;;;;5.92;86.49;93738.22;5030417;28;20629;-69
2023/01/17 05:48:19;;;;;;;11.15;9.27;;;;;;;5.87;87.48;93724.94;5030431;28;20699;-69
2023/01/17 05:50:46;;;;;;;13.82;10.90;;;;;;;5.89;86.68;93724.91;5040027;28;20222;-67
2023/01/17 05:53:16;;;;;;;13.15;9.00;;;;;;;5.88;86.81;93723.22;5030083;28;20688;-69
2023/01/17 05:55:43;;;;;;;10.55;9.02;;;;;;;5.89;87.16;93715.66;5029898;28;20203;-69
2023/01/17 05:58:15;;;;;;;16.40;9.75;;;;;;;5.90;87.22;93726.56;5042489;28;20210;-69
2023/01/17 06:00:42;;;;;;;15.45;10.38;;;;;;;5.98;86.81;93724.53;5047912;28;20287;-68
2023/01/17 06:03:09;;;;;;;13.52;9.88;;;;;;;6.09;86.54;93738.41;5036299;28;20296;-68
2023/01/17 06:05:35;;;;;;;14.20;9.68;;;;;;;6.18;85.51;93718.78;5036439;28;20200;-68
2023/01/17 06:08:02;;;;;;;13.00;10.77;;;;;;;6.47;85.47;93721.78;5030256;28;20200;-69
2023/01/17 06:10:31;;;;;;;11.02;9.90;;;;;;;6.81;84.10;93687.63;5031495;28;20273;-70
2023/01/17 06:13:03;;;;;;;14.20;9.60;;;;;;;7.01;82.18;93689.34;5032523;28;20766;-68
2023/01/17 06:15:30;;;;;;;10.63;8.98;;;;;;;7.14;81.71;93710.69;5032037;28;20200;-68
2023/01/17 06:17:57;;;;;;;11.38;9.27;;;;;;;7.28;80.93;93693.22;5032250;28;20257;-70
2023/01/17 06:20:24;;;;;;;14.18;9.63;;;;;;;7.89;80.02;93688.03;5031870;28;20622;-69
2023/01/17 06:22:50;;;;;;;13.10;10.45;;;;;;;8.81;77.39;93687.09;5032031;28;20277;-68
2023/01/17 06:25:17;;;;;;;14.55;9.98;;;;;;;9.45;73.29;93701.63;5032114;28;20207;-69
2023/01/17 06:27:45;;;;;;;17.42;10.30;;;;;;;9.46;73.33;93721.00;5032648;28;20734;-68
2023/01/17 06:30:12;;;;;;;20.60;13.40;;;;;;;9.18;73.01;93731.69;5033151;28;20549;-68
2023/01/17 06:32:39;;;;;;;16.75;11.65;;;;;;;8.65;74.51;93730.06;5033716;28;20211;-69
2023/01/17 06:35:07;;;;;;;12.90;10.27;;;;;;;8.14;76.57;93741.69;5033447;28;20200;-68
2023/01/17 06:37:33;;;;;;;15.07;10.55;;;;;;;7.84;77.95;93737.97;5033515;28;20204;-70
2023/01/17 06:40:00;;;;;;;16.88;10.65;;;;;;;7.80;79.29;93731.41;5033187;28;20223;-67
2023/01/17 06:42:27;;;;;;;14.60;10.63;;;;;;;7.76;79.98;93740.03;5033329;28;21288;-69
2023/01/17 06:44:55;;;;;;;17.23;11.68;;;;;;;7.72;79.49;93768.84;5033104;28;20703;-68
2023/01/17 06:47:22;;;;;;;15.23;10.95;;;;;;;7.74;80.04;93751.91;5033136;28;20746;-69
2023/01/17 06:49:49;;;;;;;14.82;12.00;;;;;;;7.59;79.63;93757.63;5033026;28;20707;-68
2023/01/17 06:52:16;;;;;;;22.20;12.65;;;;;;;7.46;80.79;93775.84;5033590;28;20203;-69
2023/01/17 06:54:43;;;;;;;16.88;12.13;;;;;;;7.49;80.14;93736.97;5033078;28;20200;-70
2023/01/17 06:57:09;;;;;;;20.73;14.20;;;;;;;7.21;80.92;93737.31;5033141;28;20200;-68
2023/01/17 06:59:36;;;;;;;15.82;11.65;;;;;;;7.24;81.33;93766.69;5033166;28;20694;-70
2023/01/17 07:02:04;;;;;;;18.83;12.57;;;;;;;7.28;81.28;93748.00;5033115;28;20603;-68
2023/01/17 07:04:31;;;;;;;21.17;13.50;;;;;;;7.49;81.07;93754.66;5033013;28;20281;-69
2023/01/17 07:06:58;;;;;;;17.60;12.90;;;;;;;7.58;80.90;93741.66;5033535;28;20627;-69
2023/01/17 07:09:25;;;;;;;15.70;12.15;;;;;;;7.48;80.95;93761.44;5032566;28;20208;-69
2023/01/17 07:11:58;;;;;;;16.40;11.82;;;;;;;7.58;80.61;93745.88;5032845;28;20200;-69
2023/01/17 07:14:25;;;;;;;18.58;12.73;;;;;;;7.81;80.57;93748.22;5033006;28;20287;-68
2023/01/17 07:16:52;;;;;;;24.77;15.52;;;;;;;8.13;79.11;93722.31;5032880;28;20199;-69
2023/01/17 07:19:20;;;;;;;15.95;11.48;;;;;;;8.26;78.46;93744.53;5032760;28;20628;-69
2023/01/17 07:21:47;;;;;;;16.48;11.90;;;;;;;8.49;78.91;93749.38;5032311;28;20196;-68
2023/01/17 07:24:13;;;;;;;19.77;11.60;;;;;;;8.84;77.10;93733.34;5032852;28;20261;-69
2023/01/17 07:26:40;;;;;;;12.10;10.52;;;;;;;9.21;75.77;93741.69;5032563;28;20204;-69
2023/01/17 07:29:07;;;;;;;16.52;10.45;;;;;;;9.41;74.23;93769.41;5032720;28;20203;-69
2023/01/17 07:31:35;;;;;;;15.02;10.32;;;;;;;9.57;74.09;93744.13;5032180;28;20659;-69
2023/01/17 07:34:02;;;;;;;22.13;11.82;;;;;;;9.63;73.50;93737.91;5032292;28;20203;-69
2023/01/17 07:36:30;;;;;;;15.27;9.35;;;;;;;9.66;73.09;93755.50;5032403;28;20692;-69
2023/01/17 07:38:57;;;;;;;13.45;9.23;;;;;;;9.87;72.72;93749.34;5032576;28;20220;-68
2023/01/17 07:41:24;;;;;;;11.55;9.93;;;;;;;10.20;71.40;93750.13;5032207;28;20192;-68
2023/01/17 07:43:51;;;;;;;11.13;8.20;;;;;;;10.81;70.79;93746.81;5032501;28;20195;-68
2023/01/17 07:46:18;;;;;;;11.85;9.23;;;;;;;11.76;67.62;93743.94;5032358;28;20203;-66
2023/01/17 07:48:45;;;;;;;11.07;7.75;;;;;;;12.25;66.28;93749.47;5032222;28;20203;-69
2023/01/17 07:51:11;;;;;;;13.98;9.48;;;;;;;12.29;64.80;93745.03;5031860;28;20285;-68
2023/01/17 07:53:39;;;;;;;11.32;8.10;;;;;;;12.15;64.75;93749.22;5032143;28;20291;-67
2023/01/17 07:56:07;;;;;;;13.68;9.25;;;;;;;11.91;65.53;93755.78;5031748;28;20287;-69
2023/01/17 07:58:34;;;;;;;10.10;7.63;;;;;;;11.56;66.27;93761.19;5032117;28;20199;-69
2023/01/17 08:01:02;;;;;;;15.65;6.68;;;;;;;11.37;66.36;93765.72;5031986;28;20258;-68
2023/01/17 08:03:31;;;;;;;13.60;7.82;;;;;;;11.35;66.57;93767.53;5031802;28;20290;-68
2023/01/17 08:05:58;;;;;;;11.57;8.50;;;;;;;11.34;67.30;93757.44;5032003;28;20283;-67
2023/01/17 08:08:25;;;;;;;16.02;9.05;;;;;;;11.40;66.93;93757.88;5032196;28;20192;-68
2023/01/17 08:10:53;;;;;;;17.48;9.63;;;;;;;11.51;66.94;93760.63;5031574;28;20667;-67
2023/01/17 08:13:20;;;;;;;22.80;12.02;;;;;;;11.58;66.66;93769.56;5031856;28;20202;-69
2023/01/17 08:15:48;;;;;;;15.70;12.68;;;;;;;11.61;67.09;93772.84;5031718;28;20204;-68
2023/01/17 08:18:15;;;;;;;16.58;11.90;;;;;;;11.74;66.33;93761.84;5031562;28;20298;-67
2023/01/17 08:20:43;;;;;;;22.45;12.27;;;;;;;11.78;66.65;93759.97;5031861;28;20195;-67
2023/01/17 08:23:10;;;;;;;17.60;11.35;;;;;;;12.07;66.18;93768.44;5031393;28;20203;-68
2023/01/17 08:25:37;;;;;;;15.38;11.57;;;;;;;12.59;63.69;93776.28;5031694;28;20226;-67
2023/01/17 08:28:05;;;;;;;15.73;11.13;;;;;;;12.82;63.02;93775.66;5031446;28;20208;-68
2023/01/17 08:30:32;;;;;;;13.60;10.60;;;;;;;13.18;61.77;93774.25;5031145;28;20653;-68
2023/01/17 08:33:00;;;;;;;15.95;11.05;;;;;;;13.50;61.53;93777.28;5031199;28;20208;-67
2023/01/17 08:35:27;;;;;;;16.35;10.23;;;;;;;13.86;60.91;93779.13;5030733;28;20199;-67
2023/01/17 08:37:55;;;;;;;18.08;10.95;;;;;;;14.58;58.14;93783.59;5031506;28;20283;-67
2023/01/17 08:40:22;;;;;;;28.40;11.63;;;;;;;14.81;57.85;93779.44;5031464;28;20452;-68
2023/01/17 08:42:54;;;;;;;19.30;11.18;;;;;;;15.12;56.74;93782.34;5031553;28;20265;-67
2023/01/17 08:45:22;;;;;;;9.18;6.72;;;;;;;15.39;54.46;93785.50;5031331;28;20199;-69
2023/01/17 08:47:49;;;;;;;3.47;3.17;;;;;;;15.27;54.20;93771.03;5031231;28;20281;-69
2023/01/17 08:50:19;;;;;;;4.75;3.60;;;;;;;15.29;55.43;93776.88;5030652;28;20715;-68
2023/01/17 08:52:47;;;;;;;6.05;3.55;;;;;;;15.38;55.05;93778.75;5030701;28;20196;-68
2023/01/17 08:55:14;;;;;;;4.90;2.95;;;;;;;15.43;53.88;93765.63;5030019;28;20752;-67
2023/01/17 08:57:41;;;;;;;2.50;2.22;;;;;;;15.40;54.86;93761.53;5030069;28;20739;-68
2023/01/17 09:00:09;;;;;;;2.20;2.10;;;;;;;15.59;54.57;93758.50;5030968;28;20294;-69
2023/01/17 09:02:37;;;;;;;1.90;1.70;;;;;;;15.14;54.17;93771.09;5030408;28;20555;-69
2023/01/17 09:05:05;;;;;;;4.70;2.25;;;;;;;15.03;54.90;93757.44;5030756;28;20208;-70
2023/01/17 09:07:32;;;;;;;4.05;2.00;;;;;;;15.04;54.34;93766.75;5030753;28;20200;-69
2023/01/17 09:09:59;;;;;;;6.20;2.15;;;;;;;14.95;55.17;93771.59;5030733;28;20207;-68
2023/01/17 09:12:26;;;;;;;2.58;2.38;;;;;;;15.18;55.25;93766.56;5030974;28;20200;-69
2023/01/17 09:14:52;;;;;;;4.57;2.25;;;;;;;15.54;54.46;93763.91;5030443;28;20254;-68
2023/01/17 09:17:19;;;;;;;4.80;2.50;;;;;;;15.78;54.05;93756.19;5030014;28;20249;-68
2023/01/17 09:19:47;;;;;;;3.22;2.20;;;;;;;16.14;53.67;93732.09;5030804;28;20206;-67
2023/01/17 09:22:14;;;;;;;5.78;2.42;;;;;;;15.99;52.90;93744.34;5032425;28;20203;-68
2023/01/17 09:24:42;;;;;;;2.53;2.25;;;;;;;16.18;51.23;93733.50;5030441;28;20207;-69
2023/01/17 09:27:08;;;;;;;1.80;1.70;;;;;;;16.31;52.36;93734.19;5043686;28;20291;-67
2023/01/17 09:29:35;;;;;;;8.40;2.50;;;;;;;16.49;51.28;93746.53;5050411;28;20257;-69
2023/01/17 09:32:02;;;;;;;1.80;1.50;;;;;;;16.53;50.45;93722.28;5050077;28;20238;-68
2023/01/17 09:34:29;;;;;;;1.65;1.55;;;;;;;16.44;49.21;93733.25;5050679;28;20202;-64
2023/01/17 09:36:57;;;;;;;1.65;1.55;;;;;;;16.67;50.70;93735.69;5010857;28;20850;-69
2023/01/17 09:39:25;;;;;;;3.03;1.95;;;;;;;16.75;50.22;93724.81;5003620;28;20231;-69
2023/01/17 09:41:59;;;;;;;2.45;1.60;;;;;;;16.73;49.66;93706.16;5009471;28;20202;-68
2023/01/17 09:44:29;;;;;;;1.83;1.73;;;;;;;16.53;49.22;93717.16;5005127;28;20264;-71
2023/01/17 09:47:02;;;;;;;2.53;1.20;;;;;;;16.23;49.10;93725.47;5011791;28;20198;-70
2023/01/17 09:49:39;;;;;;;4.05;1.50;;;;;;;15.90;50.62;93734.75;5011197;28;20227;-69
2023/01/17 09:52:11;;;;;;;2.03;1.50;;;;;;;15.90;51.13;93729.63;5007695;28;20226;-68
2023/01/17 09:54:40;;;;;;;1.77;1.42;;;;;;;15.99;51.61;93740.94;5015091;28;20218;-68
2023/01/17 09:57:17;;;;;;;2.33;1.55;;;;;;;16.01;50.82;93751.91;5010773;28;20207;-68
2023/01/17 09:59:54;;;;;;;3.30;1.40;;;;;;;15.75;50.50;93761.53;5007851;28;20211;-69
2023/01/17 10:02:47;;;;;;;1.40;1.30;;;;;;;15.79;51.70;93752.69;5012644;28;20210;-69
2023/01/17 10:05:33;;;;;;;1.88;1.45;;;;;;;15.83;52.11;93737.94;5011008;28;20206;-66
2023/01/17 10:08:16;;;;;;;4.80;2.00;;;;;;;15.82;51.44;93752.47;5006806;28;20211;-67
2023/01/17 10:10:47;;;;;;;7.45;1.70;;;;;;;15.69;51.97;93748.38;5011132;28;20253;-64
2023/01/17 10:13:27;;;;;;;5.43;1.63;;;;;;;15.44;51.59;93742.47;5012200;28;20211;-66
2023/01/17 10:16:10;;;;;;;3.20;1.58;;;;;;;15.26;52.85;93749.75;5013391;28;20207;-68
2023/01/17 10:18:59;;;;;;;1.85;1.50;;;;;;;14.88;53.71;93744.00;5012968;28;20683;-69
2023/01/17 10:21:38;;;;;;;1.90;1.27;;;;;;;14.61;55.11;93756.97;5012099;28;20210;-71
2023/01/17 10:24:35;;;;;;;1.73;1.42;;;;;;;14.56;54.55;93762.44;5011552;28;20214;-70
2023/01/17 10:27:12;;;;;;;5.00;1.35;;;;;;;14.33;54.71;93759.81;5011672;28;20499;-69
2023/01/17 10:29:40;;;;;;;1.60;1.50;;;;;;;14.35;55.60;93755.41;5012410;28;20418;-69
2023/01/17 10:32:10;;;;;;;2.47;1.85;;;;;;;14.18;54.93;93754.00;5011906;28;20246;-69
2023/01/17 10:34:43;;;;;;;3.33;2.15;;;;;;;14.28;55.94;93760.94;5010753;28;20693;-71
2023/01/17 10:37:18;;;;;;;5.38;2.13;;;;;;;14.30;56.18;93758.28;5011663;28;20677;-68
2023/01/17 10:39:48;;;;;;;2.83;2.20;;;;;;;14.39;56.38;93749.13;5009672;28;20327;-69
2023/01/17 10:42:21;;;;;;;1.70;1.48;;;;;;;14.18;56.05;93759.91;5010105;28;20673;-70
2023/01/17 10:44:53;;;;;;;1.80;1.70;;;;;;;14.21;56.71;93748.66;5010838;28;20211;-69
2023/01/17 10:47:22;;;;;;;2.72;1.60;;;;;;;14.15;56.14;93714.13;5009829;28;20674;-66
2023/01/17 10:49:52;;;;;;;5.07;2.45;;;;;;;14.34;56.65;93736.69;5007226;28;20688;-71
2023/01/17 10:52:31;;;;;;;2.50;2.30;;;;;;;14.37;55.92;93738.19;5010866;28;20227;-67
2023/01/17 10:55:18;;;;;;;3.10;2.90;;;;;;;14.37;55.50;93733.09;5011464;28;20300;-67
2023/01/17 10:57:48;;;;;;;2.13;1.77;;;;;;;14.43;55.00;93738.63;5012124;28;20218;-66
2023/01/17 11:00:28;;;;;;;5.47;1.63;;;;;;;14.42;55.48;93736.19;5008957;28;20211;-69
2023/01/17 11:02:55;;;;;;;5.60;1.77;;;;;;;14.49;55.64;93729.72;5012933;28;20242;-69
2023/01/17 11:05:25;;;;;;;2.33;2.13;;;;;;;14.45;55.64;93725.75;5012797;28;20195;-70
2023/01/17 11:08:00;;;;;;;1.92;1.83;;;;;;;14.48;55.32;93730.66;5012506;28;20203;-68
2023/01/17 11:10:41;;;;;;;2.17;2.00;;;;;;;14.52;55.05;93714.19;5012203;28;20205;-70
2023/01/17 11:13:23;;;;;;;2.53;2.33;;;;;;;14.72;53.69;93711.03;5011053;28;20207;-68
2023/01/17 11:15:56;;;;;;;4.55;2.10;;;;;;;14.89;54.21;93704.69;5013599;28;20705;-68
2023/01/17 11:18:26;;;;;;;2.25;1.50;;;;;;;14.90;52.83;93688.44;5013182;28;20256;-66
2023/01/17 11:20:53;;;;;;;3.80;1.98;;;;;;;15.03;54.06;93703.72;5012820;28;20214;-70
2023/01/17 11:23:23;;;;;;;3.35;2.00;;;;;;;15.01;54.49;93682.56;5012137;28;20211;-69
2023/01/17 11:25:56;;;;;;;1.95;1.52;;;;;;;14.73;53.20;93694.75;5011752;28;20854;-69
2023/01/17 11:28:29;;;;;;;1.88;1.58;;;;;;;14.67;52.99;93669.63;5009672;28;21232;-65
2023/01/17 11:30:57;;;;;;;1.58;1.48;;;;;;;14.73;53.05;93669.19;5009582;28;20255;-69
2023/01/17 11:33:43;;;;;;;3.33;1.60;;;;;;;14.89;52.37;93663.78;5010806;28;20566;-68
2023/01/17 11:36:16;;;;;;;1.70;1.58;;;;;;;14.98;53.20;93645.22;5011899;28;20222;-68
2023/01/17 11:38:54;;;;;;;2.58;1.30;;;;;;;15.03;51.74;93638.03;5010390;28;20237;-66
2023/01/17 11:41:23;;;;;;;1.10;1.10;;;;;;;14.95;51.17;93622.41;5011450;28;20215;-68
2023/01/17 11:43:52;;;;;;;1.35;1.00;;;;;;;15.16;51.13;93630.25;5008428;28;20289;-67
2023/01/17 11:46:19;;;;;;;3.13;1.35;;;;;;;15.17;50.95;93630.13;5012251;28;20512;-68
2023/01/17 11:48:51;;;;;;;1.75;1.20;;;;;;;14.99;50.72;93628.94;5011388;28;20221;-70
2023/01/17 11:51:26;;;;;;;2.70;1.10;;;;;;;14.70;52.08;93628.50;5010811;28;20663;-67
2023/01/17 11:53:55;;;;;;;2.78;1.52;;;;;;;14.63;51.65;93637.53;5010631;28;20786;-68
2023/01/17 11:56:31;;;;;;;6.68;0.93;;;;;;;14.80;51.98;93624.38;5009415;28;20219;-69
2023/01/17 11:59:22;;;;;;;2.17;1.35;;;;;;;14.87;51.90;93612.72;5012068;28;20207;-69
2023/01/17 12:02:03;;;;;;;2.95;1.40;;;;;;;14.95;50.97;93607.88;5009795;28;20822;-68
2023/01/17 12:04:38;;;;;;;2.00;1.48;;;;;;;14.93;51.65;93604.63;5010382;28;20560;-70
2023/01/17 12:07:24;;;;;;;5.05;1.48;;;;;;;15.05;51.34;93602.91;5010768;28;20207;-68
2023/01/17 12:10:00;;;;;;;1.95;1.08;;;;;;;14.95;51.90;93601.94;5009318;28;20198;-68
2023/01/17 12:15:43;;;;;;;2.80;1.20;;;;;;;14.70;50.80;93597.81;5010482;28;20206;-67
2023/01/17 12:18:27;;;;;;;2.05;1.50;;;;;;;14.67;51.13;93608.25;5011443;28;20207;-70
2023/01/17 12:21:03;;;;;;;1.10;1.00;;;;;;;14.68;50.14;93581.78;5010388;28;20207;-68
2023/01/17 12:23:51;;;;;;;3.10;1.00;;;;;;;14.88;50.09;93578.56;5010523;28;20202;-68
2023/01/17 12:26:27;;;;;;;2.00;1.25;;;;;;;15.05;49.42;93581.63;5017099;28;20211;-69
2023/01/17 12:29:17;;;;;;;2.42;1.10;;;;;;;15.14;49.59;93556.16;5030082;28;20585;-70
2023/01/17 12:31:56;;;;;;;1.33;0.90;;;;;;;15.21;48.92;93577.00;5021726;28;20520;-71
2023/01/17 12:34:28;;;;;;;1.70;1.00;;;;;;;15.08;49.90;93566.06;5029980;28;20261;-70
2023/01/17 12:36:59;;;;;;;3.75;1.70;;;;;;;14.98;50.30;93571.84;5029733;28;20290;-68
2023/01/17 12:39:35;;;;;;;3.15;2.85;;;;;;;15.11;49.84;93566.63;5029790;28;20225;-67
2023/01/17 12:42:05;;;;;;;1.10;1.00;;;;;;;15.20;49.97;93570.25;5029546;28;20203;-68
2023/01/17 12:44:50;;;;;;;4.93;2.35;;;;;;;15.28;50.17;93578.16;5029621;28;20196;-69
2023/01/17 12:47:19;;;;;;;1.48;1.38;;;;;;;15.18;49.09;93569.53;5029668;28;20639;-69
2023/01/17 12:49:54;;;;;;;1.27;1.15;;;;;;;15.00;50.43;93568.38;5030423;28;20207;-68
2023/01/17 12:52:29;;;;;;;1.38;1.00;;;;;;;14.70;50.33;93550.97;5031084;28;20227;-68
2023/01/17 12:55:02;;;;;;;1.00;1.00;;;;;;;14.73;51.14;93566.91;5031383;28;20203;-69
2023/01/17 12:57:34;;;;;;;1.10;0.75;;;;;;;14.85;50.35;93566.00;5030789;28;20203;-70
2023/01/17 13:00:08;;;;;;;1.00;1.00;;;;;;;14.89;50.14;93585.31;5031111;28;20231;-69
2023/01/17 13:02:38;;;;;;;1.08;0.90;;;;;;;14.82;50.43;93555.19;5030172;28;20210;-68
2023/01/17 13:05:11;;;;;;;1.13;1.13;;;;;;;14.88;49.78;93560.66;5030306;28;20698;-69